createdAt,value
2018-02-21T00:00:59.257Z,30.33
2018-02-21T00:03:26.800Z,30.93
2018-02-21T00:05:54.373Z,31.43
2018-02-21T00:08:21.908Z,31.10
2018-02-21T00:10:49.447Z,30.53
2018-02-21T00:13:17.855Z,31.27
2018-02-21T00:15:45.429Z,30.83
2018-02-21T00:18:13.090Z,30.37
2018-02-21T00:20:41.331Z,30.73
2018-02-21T00:23:09.673Z,30.50
2018-02-21T00:25:37.249Z,28.90
2018-02-21T00:28:04.876Z,28.90
2018-02-21T00:30:32.412Z,29.57
2018-02-21T00:33:00.750Z,29.23
2018-02-21T00:35:28.418Z,29.57
2018-02-21T00:37:56.058Z,29.53
2018-02-21T00:40:23.638Z,30.37
2018-02-21T00:42:51.154Z,30.00
2018-02-21T00:45:19.448Z,30.43
2018-02-21T00:47:47.030Z,27.37
2018-02-21T00:50:14.651Z,27.83
2018-02-21T00:52:42.229Z,26.50
2018-02-21T00:55:10.536Z,26.57
2018-02-21T00:57:38.210Z,28.97
2018-02-21T01:00:05.786Z,26.80
2018-02-21T01:02:33.320Z,27.20
2018-02-21T01:05:02.124Z,27.40
2018-02-21T01:07:29.794Z,28.70
2018-02-21T01:09:57.373Z,28.13
2018-02-21T01:12:24.946Z,28.27
2018-02-21T01:14:52.485Z,27.53
2018-02-21T01:17:20.086Z,28.17
2018-02-21T01:19:47.769Z,28.23
2018-02-21T01:22:15.304Z,27.03
2018-02-21T01:24:42.880Z,27.77
2018-02-21T01:27:10.420Z,28.27
2018-02-21T01:29:38.006Z,28.60
2018-02-21T01:32:05.585Z,27.73
2018-02-21T01:34:33.198Z,27.33
2018-02-21T01:37:00.769Z,29.43
2018-02-21T01:39:28.341Z,28.67
2018-02-21T01:41:55.870Z,29.07
2018-02-21T01:44:24.157Z,28.20
2018-02-21T01:46:51.738Z,27.97
2018-02-21T01:49:19.279Z,29.37
2018-02-21T01:51:46.857Z,30.10
2018-02-21T01:54:14.435Z,29.70
2018-02-21T01:56:41.992Z,29.33
2018-02-21T01:59:09.569Z,29.40
2018-02-21T02:01:37.136Z,28.70
2018-02-21T02:04:04.709Z,28.87
2018-02-21T02:06:32.252Z,30.47
2018-02-21T02:08:59.889Z,29.60
2018-02-21T02:11:28.130Z,30.17
2018-02-21T02:13:55.598Z,30.13
2018-02-21T02:16:23.173Z,29.37
2018-02-21T02:18:50.788Z,30.40
2018-02-21T02:21:18.351Z,28.03
2018-02-21T02:23:45.966Z,29.40
2018-02-21T02:26:13.500Z,27.97
2018-02-21T02:28:41.038Z,28.93
2018-02-21T02:31:08.619Z,28.20
2018-02-21T02:33:36.156Z,29.50
2018-02-21T02:36:03.766Z,31.23
2018-02-21T02:38:40.301Z,28.33
2018-02-21T02:41:07.905Z,30.50
2018-02-21T02:43:35.422Z,31.27
2018-02-21T02:46:02.990Z,29.83
2018-02-21T02:48:30.596Z,30.47
2018-02-21T02:50:58.132Z,29.17
2018-02-21T02:53:25.709Z,31.47
2018-02-21T02:55:53.276Z,30.13
2018-02-21T02:58:20.853Z,30.57
2018-02-21T03:00:48.388Z,29.97
2018-02-21T03:03:16.005Z,30.07
2018-02-21T03:05:44.348Z,31.73
2018-02-21T03:08:11.930Z,30.93
2018-02-21T03:10:39.553Z,28.40
2018-02-21T03:13:07.133Z,30.63
2018-02-21T03:15:34.714Z,26.73
2018-02-21T03:18:02.333Z,29.13
2018-02-21T03:20:29.909Z,28.70
2018-02-21T03:22:57.454Z,29.13
2018-02-21T03:25:25.808Z,28.77
2018-02-21T03:27:53.430Z,27.37
2018-02-21T03:30:21.014Z,27.43
2018-02-21T03:32:48.629Z,25.67
2018-02-21T03:35:16.939Z,26.40
2018-02-21T03:37:44.606Z,27.13
2018-02-21T03:40:12.221Z,27.23
2018-02-21T03:42:39.743Z,26.17
2018-02-21T03:45:07.272Z,27.73
2018-02-21T03:47:35.718Z,26.27
2018-02-21T03:50:03.287Z,27.33
2018-02-21T03:52:30.864Z,26.33
2018-02-21T03:54:58.444Z,25.03
2018-02-21T03:57:26.753Z,27.77
2018-02-21T03:59:54.334Z,27.37
2018-02-21T04:02:21.908Z,27.97
2018-02-21T04:04:49.452Z,27.70
2018-02-21T04:07:17.036Z,26.97
2018-02-21T04:09:44.619Z,26.10
2018-02-21T04:12:12.193Z,26.13
2018-02-21T04:14:39.775Z,26.13
2018-02-21T04:17:08.115Z,25.97
2018-02-21T04:19:35.753Z,26.13
2018-02-21T04:22:03.499Z,26.23
2018-02-21T04:24:31.047Z,27.37
2018-02-21T04:26:59.360Z,24.93
2018-02-21T04:29:26.983Z,25.77
2018-02-21T04:31:54.565Z,26.20
2018-02-21T04:34:22.909Z,26.17
2018-02-21T04:36:50.520Z,24.00
2018-02-21T04:39:18.068Z,25.73
2018-02-21T04:41:46.382Z,25.97
2018-02-21T04:44:13.968Z,25.77
2018-02-21T04:46:41.507Z,25.33
2018-02-21T04:49:09.046Z,25.57
2018-02-21T04:51:37.392Z,25.23
2018-02-21T04:54:04.888Z,25.30
2018-02-21T04:56:50.075Z,24.27
2018-02-21T04:59:23.475Z,25.20
2018-02-21T05:01:51.086Z,25.37
2018-02-21T05:04:18.633Z,23.93
2018-02-21T05:06:46.173Z,24.07
2018-02-21T05:09:13.840Z,25.03
2018-02-21T05:11:41.352Z,24.60
2018-02-21T05:14:08.892Z,23.37
2018-02-21T05:16:36.514Z,23.93
2018-02-21T05:19:04.117Z,23.67
2018-02-21T05:21:31.701Z,23.20
2018-02-21T05:23:59.350Z,23.87
2018-02-21T05:26:26.930Z,23.73
2018-02-21T05:28:54.501Z,23.57
2018-02-21T05:31:22.127Z,23.07
2018-02-21T05:33:49.737Z,24.13
2018-02-21T05:36:17.283Z,23.30
2018-02-21T05:38:44.862Z,23.43
2018-02-21T05:41:12.404Z,22.47
2018-02-21T05:43:39.948Z,21.50
2018-02-21T05:46:07.562Z,25.13
2018-02-21T05:48:35.100Z,23.10
2018-02-21T05:51:02.640Z,22.90
2018-02-21T05:53:30.213Z,24.97
2018-02-21T05:55:57.756Z,24.70
2018-02-21T05:58:25.316Z,24.97
2018-02-21T06:00:53.644Z,24.67
2018-02-21T06:03:21.229Z,25.23
2018-02-21T06:05:48.804Z,23.87
2018-02-21T06:08:17.116Z,25.13
2018-02-21T06:10:44.697Z,26.63
2018-02-21T06:13:12.251Z,27.30
2018-02-21T06:15:39.792Z,27.17
2018-02-21T06:18:07.386Z,27.30
2018-02-21T06:20:34.998Z,29.37
2018-02-21T06:23:02.474Z,30.17
2018-02-21T06:25:30.816Z,27.77
2018-02-21T06:27:58.355Z,28.83
2018-02-21T06:30:25.941Z,29.50
2018-02-21T06:32:53.524Z,28.07
2018-02-21T06:35:21.064Z,30.67
2018-02-21T06:37:48.664Z,29.07
2018-02-21T06:40:16.974Z,29.57
2018-02-21T06:42:44.450Z,30.13
2018-02-21T06:45:11.984Z,30.77
2018-02-21T06:47:40.327Z,30.67
2018-02-21T06:50:07.843Z,29.90
2018-02-21T06:52:36.177Z,30.70
2018-02-21T06:55:03.973Z,28.80
2018-02-21T06:57:32.317Z,28.10
2018-02-21T06:59:59.834Z,29.90
2018-02-21T07:02:35.198Z,28.40
2018-02-21T07:05:02.776Z,29.67
2018-02-21T07:07:30.357Z,28.63
2018-02-21T07:09:57.968Z,27.87
2018-02-21T07:12:25.541Z,28.90
2018-02-21T07:14:53.113Z,27.80
2018-02-21T07:17:20.760Z,27.37
2018-02-21T07:19:49.056Z,27.27
2018-02-21T07:22:16.633Z,28.87
2018-02-21T07:24:44.291Z,28.33
2018-02-21T07:27:11.865Z,27.37
2018-02-21T07:29:39.379Z,27.80
2018-02-21T07:32:06.978Z,28.60
2018-02-21T07:34:34.524Z,29.50
2018-02-21T07:37:02.770Z,26.90
2018-02-21T07:39:30.341Z,29.50
2018-02-21T07:41:57.881Z,28.03
2018-02-21T07:44:25.420Z,27.57
2018-02-21T07:46:52.987Z,27.90
2018-02-21T07:49:20.467Z,29.13
2018-02-21T07:51:48.009Z,27.70
2018-02-21T07:54:15.635Z,29.03
2018-02-21T07:56:43.202Z,30.17
2018-02-21T07:59:11.625Z,28.80
2018-02-21T08:01:39.238Z,28.77
2018-02-21T08:04:06.772Z,26.90
2018-02-21T08:06:34.300Z,29.30
2018-02-21T08:09:01.925Z,28.87
2018-02-21T08:11:29.564Z,29.07
2018-02-21T08:13:57.105Z,27.50
2018-02-21T08:16:24.688Z,28.00
2018-02-21T08:18:52.277Z,29.37
2018-02-21T08:21:19.853Z,27.40
2018-02-21T08:23:47.461Z,28.00
2018-02-21T08:26:15.034Z,26.17
2018-02-21T08:28:42.614Z,27.77
2018-02-21T08:31:10.196Z,28.97
2018-02-21T08:33:37.735Z,28.07
2018-02-21T08:36:05.305Z,28.13
2018-02-21T08:38:32.879Z,26.60
2018-02-21T08:41:00.416Z,28.83
2018-02-21T08:43:27.960Z,29.23
2018-02-21T08:45:56.299Z,27.17
2018-02-21T08:48:23.835Z,28.00
2018-02-21T08:50:51.363Z,29.27
2018-02-21T08:53:19.700Z,27.40
2018-02-21T08:55:47.281Z,26.07
2018-02-21T08:58:14.853Z,24.27
2018-02-21T09:00:42.429Z,25.23
2018-02-21T09:03:10.773Z,25.80
2018-02-21T09:05:38.309Z,24.83
2018-02-21T09:08:05.876Z,26.57
2018-02-21T09:10:33.445Z,24.57
2018-02-21T09:13:01.013Z,26.60
2018-02-21T09:15:28.625Z,26.57
2018-02-21T09:17:57.046Z,25.80
2018-02-21T09:20:24.558Z,26.03
2018-02-21T09:22:52.165Z,27.53
2018-02-21T09:25:19.738Z,26.50
2018-02-21T09:27:47.410Z,28.73
2018-02-21T09:30:14.997Z,28.07
2018-02-21T09:32:42.574Z,26.53
2018-02-21T09:35:10.096Z,26.27
2018-02-21T09:37:37.763Z,24.67
2018-02-21T09:40:05.300Z,25.83
2018-02-21T09:42:33.698Z,25.77
2018-02-21T09:45:01.269Z,24.73
2018-02-21T09:47:28.812Z,24.90
2018-02-21T09:49:57.221Z,24.70
2018-02-21T09:52:24.801Z,24.93
2018-02-21T09:54:52.337Z,24.67
2018-02-21T09:57:19.916Z,24.63
2018-02-21T09:59:47.501Z,24.73
2018-02-21T10:02:15.073Z,23.17
2018-02-21T10:04:42.865Z,24.17
2018-02-21T10:07:10.404Z,23.63
2018-02-21T10:09:37.999Z,26.07
2018-02-21T10:12:06.384Z,25.50
2018-02-21T10:14:34.721Z,25.17
2018-02-21T10:17:02.333Z,23.07
2018-02-21T10:19:30.637Z,24.23
2018-02-21T10:21:58.257Z,24.50
2018-02-21T10:24:25.793Z,24.40
2018-02-21T10:26:53.358Z,24.23
2018-02-21T10:29:20.929Z,22.73
2018-02-21T10:31:48.561Z,23.07
2018-02-21T10:34:16.239Z,22.70
2018-02-21T10:36:43.833Z,24.40
2018-02-21T10:39:11.367Z,23.73
2018-02-21T10:41:38.977Z,24.07
2018-02-21T10:44:06.617Z,24.47
2018-02-21T10:46:34.290Z,23.90
2018-02-21T10:49:02.012Z,23.80
2018-02-21T10:51:30.389Z,25.33
2018-02-21T10:53:58.934Z,24.07
2018-02-21T10:56:26.520Z,24.10
2018-02-21T10:58:54.135Z,23.10
2018-02-21T11:01:22.382Z,23.23
2018-02-21T11:03:50.749Z,23.37
2018-02-21T11:06:18.569Z,22.67
2018-02-21T11:08:46.149Z,22.50
2018-02-21T11:11:13.753Z,23.00
2018-02-21T11:13:41.300Z,21.07
2018-02-21T11:16:08.939Z,20.77
2018-02-21T11:18:37.354Z,20.43
2018-02-21T11:21:04.908Z,20.67
2018-02-21T11:23:32.614Z,21.03
2018-02-21T11:26:00.109Z,19.97
2018-02-21T11:28:27.691Z,20.63
2018-02-21T11:30:55.239Z,20.53
2018-02-21T11:33:22.768Z,19.27
2018-02-21T11:35:51.102Z,19.63
2018-02-21T11:38:18.651Z,20.03
2018-02-21T11:40:46.118Z,19.83
2018-02-21T11:43:13.688Z,18.73
2018-02-21T11:45:41.221Z,21.23
2018-02-21T11:48:08.801Z,22.57
2018-02-21T11:50:36.464Z,20.53
2018-02-21T11:53:03.999Z,21.57
2018-02-21T11:55:32.337Z,22.77
2018-02-21T11:57:59.965Z,21.50
2018-02-21T12:00:27.500Z,21.47
2018-02-21T12:02:55.779Z,20.87
2018-02-21T12:05:24.143Z,22.70
2018-02-21T12:07:52.577Z,22.80
2018-02-21T12:10:20.159Z,21.27
2018-02-21T12:12:47.805Z,21.80
2018-02-21T12:15:15.381Z,20.43
2018-02-21T12:17:42.932Z,22.40
2018-02-21T12:20:10.531Z,21.37
2018-02-21T12:22:38.111Z,22.00
2018-02-21T12:25:06.358Z,23.00
2018-02-21T12:27:33.965Z,23.07
2018-02-21T12:30:01.446Z,21.13
2018-02-21T12:32:33.509Z,23.03
2018-02-21T12:35:01.921Z,24.10
2018-02-21T12:37:29.502Z,24.87
2018-02-21T12:39:58.821Z,21.90
2018-02-21T12:42:26.385Z,21.90
2018-02-21T12:44:53.936Z,23.00
2018-02-21T12:47:21.549Z,23.40
2018-02-21T12:49:49.893Z,22.47
2018-02-21T12:52:17.470Z,23.23
2018-02-21T12:54:45.845Z,22.20
2018-02-21T12:57:13.380Z,21.53
2018-02-21T12:59:40.921Z,22.13
2018-02-21T13:02:08.529Z,22.27
2018-02-21T13:04:36.109Z,23.23
2018-02-21T13:07:03.685Z,23.30
2018-02-21T13:09:31.309Z,22.53
2018-02-21T13:11:58.847Z,23.77
2018-02-21T13:14:26.425Z,24.03
2018-02-21T13:16:54.004Z,22.20
2018-02-21T13:19:21.594Z,23.93
2018-02-21T13:21:49.132Z,25.43
2018-02-21T13:24:16.696Z,23.87
2018-02-21T13:26:44.232Z,23.67
2018-02-21T13:29:11.855Z,23.17
2018-02-21T13:31:39.432Z,23.97
2018-02-21T13:34:06.969Z,24.20
2018-02-21T13:36:34.657Z,26.07
2018-02-21T13:39:02.237Z,26.03
2018-02-21T13:41:30.576Z,28.40
2018-02-21T13:43:58.120Z,27.33
2018-02-21T13:46:25.687Z,30.30
2018-02-21T13:48:53.194Z,32.53
2018-02-21T13:51:20.825Z,33.30
2018-02-21T13:53:48.445Z,31.97
2018-02-21T13:56:16.752Z,32.47
2018-02-21T13:58:44.321Z,32.03
2018-02-21T14:01:11.899Z,30.73
2018-02-21T14:03:39.473Z,32.30
2018-02-21T14:06:06.949Z,31.10
2018-02-21T14:08:34.514Z,29.63
2018-02-21T14:11:02.093Z,30.00
2018-02-21T14:13:29.636Z,29.77
2018-02-21T14:15:57.265Z,29.10
2018-02-21T14:18:24.850Z,29.80
2018-02-21T14:20:52.436Z,29.43
2018-02-21T14:23:20.062Z,30.03
2018-02-21T14:25:47.645Z,30.60
2018-02-21T14:28:15.188Z,30.07
2018-02-21T14:30:42.916Z,29.73
2018-02-21T14:33:11.296Z,30.00
2018-02-21T14:35:39.719Z,29.30
2018-02-21T14:38:07.392Z,29.97
2018-02-21T14:40:34.969Z,29.03
2018-02-21T14:43:02.541Z,29.90
2018-02-21T14:45:30.297Z,30.37
2018-02-21T14:47:57.949Z,30.63
2018-02-21T14:50:25.485Z,30.07
2018-02-21T14:52:53.861Z,29.20
2018-02-21T14:55:22.139Z,30.73
2018-02-21T14:57:50.561Z,32.03
2018-02-21T15:00:18.162Z,31.30
2018-02-21T15:02:45.700Z,32.73
2018-02-21T15:05:13.287Z,30.80
2018-02-21T15:07:40.917Z,32.10
2018-02-21T15:10:08.456Z,30.53
2018-02-21T15:12:36.988Z,31.77
2018-02-21T15:15:04.536Z,31.77
2018-02-21T15:17:32.272Z,30.80
2018-02-21T15:20:00.682Z,32.90
2018-02-21T15:22:28.263Z,32.17
2018-02-21T15:24:55.811Z,32.43
2018-02-21T15:27:23.396Z,32.23
2018-02-21T15:29:50.969Z,31.00
2018-02-21T15:32:18.512Z,32.33
2018-02-21T15:34:46.092Z,32.07
2018-02-21T15:37:13.628Z,34.40
2018-02-21T15:39:41.357Z,31.33
2018-02-21T15:42:09.800Z,33.40
2018-02-21T15:44:37.391Z,32.80
2018-02-21T15:47:05.017Z,34.23
2018-02-21T15:49:32.614Z,33.83
2018-02-21T15:52:00.169Z,33.30
2018-02-21T15:54:27.725Z,34.47
2018-02-21T15:56:55.928Z,32.87
2018-02-21T15:59:23.472Z,34.73
2018-02-21T16:01:51.013Z,33.90
2018-02-21T16:04:18.731Z,33.77
2018-02-21T16:06:46.342Z,32.07
2018-02-21T16:09:13.876Z,33.67
2018-02-21T16:11:42.194Z,31.57
2018-02-21T16:14:09.765Z,31.93
2018-02-21T16:16:37.374Z,35.10
2018-02-21T16:19:04.986Z,34.37
2018-02-21T16:21:32.515Z,34.80
2018-02-21T16:24:00.857Z,34.13
2018-02-21T16:26:28.496Z,35.07
2018-02-21T16:28:56.078Z,35.20
2018-02-21T16:31:23.594Z,36.00
2018-02-21T16:33:51.932Z,33.27
2018-02-21T16:36:19.467Z,34.70
2018-02-21T16:38:47.042Z,35.47
2018-02-21T16:41:14.624Z,32.87
2018-02-21T16:43:42.217Z,33.00
2018-02-21T16:46:10.532Z,33.43
2018-02-21T16:51:12.743Z,33.93
2018-02-21T16:53:40.524Z,35.30
2018-02-21T16:56:08.097Z,34.33
2018-02-21T16:58:35.636Z,35.43
2018-02-21T17:01:03.246Z,34.63
2018-02-21T17:03:30.790Z,34.23
2018-02-21T17:05:58.374Z,35.37
2018-02-21T17:08:25.948Z,36.00
2018-02-21T17:10:54.244Z,33.23
2018-02-21T17:13:22.585Z,35.20
2018-02-21T17:15:50.189Z,36.43
2018-02-21T17:18:18.526Z,35.63
2018-02-21T17:20:46.157Z,35.70
2018-02-21T17:23:13.739Z,34.37
2018-02-21T17:25:41.321Z,35.40
2018-02-21T17:28:08.910Z,35.43
2018-02-21T17:30:37.443Z,35.57
2018-02-21T17:33:04.970Z,36.93
2018-02-21T17:35:32.492Z,34.00
2018-02-21T17:38:00.091Z,33.83
2018-02-21T17:40:27.632Z,35.57
2018-02-21T17:42:55.256Z,35.00
2018-02-21T17:45:23.078Z,35.57
2018-02-21T17:47:50.697Z,35.77
2018-02-21T17:50:18.272Z,38.13
2018-02-21T17:52:46.040Z,34.87
2018-02-21T17:55:13.613Z,36.30
2018-02-21T17:57:41.152Z,35.77
2018-02-21T18:00:08.724Z,35.90
2018-02-21T18:02:36.296Z,36.33
2018-02-21T18:05:03.952Z,34.73
2018-02-21T18:07:31.570Z,34.10
2018-02-21T18:09:59.114Z,35.17
2018-02-21T18:12:26.747Z,36.53
2018-02-21T18:14:54.348Z,35.97
2018-02-21T18:17:21.873Z,36.57
2018-02-21T18:19:49.403Z,34.93
2018-02-21T18:22:17.789Z,36.73
2018-02-21T18:24:46.083Z,36.77
2018-02-21T18:27:13.659Z,35.57
2018-02-21T18:29:41.182Z,36.30
2018-02-21T18:32:08.754Z,35.20
2018-02-21T18:34:37.062Z,35.43
2018-02-21T18:37:04.724Z,36.20
2018-02-21T18:39:32.326Z,35.07
2018-02-21T18:41:59.828Z,37.07
2018-02-21T18:44:27.438Z,35.80
2018-02-21T18:46:54.984Z,37.67
2018-02-21T18:49:22.565Z,37.57
2018-02-21T18:51:51.280Z,38.13
2018-02-21T18:54:18.836Z,38.53
2018-02-21T18:56:46.388Z,39.30
2018-02-21T18:59:14.310Z,39.73
2018-02-21T19:01:42.628Z,38.73
2018-02-21T19:04:10.293Z,38.90
2018-02-21T19:06:38.041Z,39.43
2018-02-21T19:09:05.713Z,39.67
2018-02-21T19:11:33.291Z,40.63
2018-02-21T19:14:01.385Z,38.30
2018-02-21T19:16:29.161Z,37.87
2018-02-21T19:18:56.714Z,38.43
2018-02-21T19:21:24.310Z,39.03
2018-02-21T19:23:51.857Z,39.13
2018-02-21T19:26:19.651Z,37.60
2018-02-21T19:28:48.031Z,41.17
2018-02-21T19:31:15.658Z,39.67
2018-02-21T19:33:43.194Z,38.23
2018-02-21T19:36:10.883Z,38.60
2018-02-21T19:38:38.461Z,38.33
2018-02-21T19:41:06.009Z,38.60
2018-02-21T19:43:33.575Z,38.13
2018-02-21T19:46:01.050Z,37.77
2018-02-21T19:48:28.551Z,38.57
2018-02-21T19:50:56.067Z,39.50
2018-02-21T19:53:23.571Z,42.07
2018-02-21T19:55:51.034Z,40.17
2018-02-21T19:58:18.578Z,41.77
2018-02-21T20:00:46.050Z,43.27
2018-02-21T20:03:13.522Z,42.07
2018-02-21T20:05:41.343Z,42.00
2018-02-21T20:08:09.644Z,41.43
2018-02-21T20:10:37.106Z,42.93
2018-02-21T20:13:04.641Z,44.60
2018-02-21T20:15:32.110Z,42.93
2018-02-21T20:18:00.696Z,41.83
2018-02-21T20:20:28.255Z,42.60
2018-02-21T20:22:55.770Z,42.83
2018-02-21T20:25:23.238Z,40.80
2018-02-21T20:27:50.738Z,40.77
2018-02-21T20:30:18.246Z,40.40
2018-02-21T20:32:45.778Z,40.17
2018-02-21T20:35:13.262Z,39.80
2018-02-21T20:37:40.767Z,40.90
2018-02-21T20:40:08.239Z,41.83
2018-02-21T20:42:35.754Z,41.20
2018-02-21T20:45:03.261Z,40.67
2018-02-21T20:47:31.498Z,39.43
2018-02-21T20:49:59.230Z,43.13
2018-02-21T20:52:26.714Z,41.37
2018-02-21T20:54:54.191Z,41.23
2018-02-21T20:57:21.691Z,39.53
2018-02-21T20:59:51.130Z,40.50
2018-02-21T21:02:19.612Z,40.83
2018-02-21T21:04:47.228Z,41.60
2018-02-21T21:07:15.475Z,43.13
2018-02-21T21:09:42.979Z,40.47
2018-02-21T21:12:10.586Z,40.07
2018-02-21T21:14:38.088Z,40.80
2018-02-21T21:17:05.599Z,39.50
2018-02-21T21:19:33.126Z,40.10
2018-02-21T21:22:00.598Z,39.57
2018-02-21T21:24:28.103Z,38.17
2018-02-21T21:26:55.627Z,40.47
2018-02-21T21:29:23.134Z,41.73
2018-02-21T21:31:50.707Z,39.47
2018-02-21T21:34:18.886Z,41.23
2018-02-21T21:36:46.358Z,41.37
2018-02-21T21:39:13.927Z,39.77
2018-02-21T21:41:41.394Z,39.17
2018-02-21T21:44:08.870Z,39.17
2018-02-21T21:46:36.343Z,38.83
2018-02-21T21:49:04.656Z,37.13
2018-02-21T21:51:32.138Z,38.40
2018-02-21T21:53:59.647Z,36.27
2018-02-21T21:56:27.144Z,37.27
2018-02-21T21:58:54.659Z,36.97
2018-02-21T22:01:22.129Z,36.83
2018-02-21T22:03:49.649Z,37.80
2018-02-21T22:06:17.159Z,38.00
2018-02-21T22:08:44.675Z,39.03
2018-02-21T22:11:12.171Z,40.73
2018-02-21T22:13:39.690Z,40.20
2018-02-21T22:16:07.208Z,43.43
2018-02-21T22:18:34.912Z,42.43
2018-02-21T22:21:02.415Z,40.10
2018-02-21T22:23:29.890Z,38.30
2018-02-21T22:25:57.450Z,36.90
2018-02-21T22:28:24.967Z,36.20
2018-02-21T22:30:52.470Z,35.40
2018-02-21T22:33:19.970Z,35.47
2018-02-21T22:35:48.247Z,35.07
2018-02-21T22:38:16.485Z,32.97
2018-02-21T22:40:44.178Z,33.20
2018-02-21T22:43:11.698Z,34.97
2018-02-21T22:45:39.174Z,33.63
2018-02-21T22:48:06.704Z,33.73
2018-02-21T22:50:34.237Z,35.63
2018-02-21T22:53:01.711Z,34.90
2018-02-21T22:55:29.986Z,35.13
2018-02-21T22:57:58.387Z,34.30
2018-02-21T23:00:25.911Z,34.37
2018-02-21T23:02:53.427Z,32.40
2018-02-21T23:05:20.930Z,34.97
2018-02-21T23:07:48.551Z,32.87
2018-02-21T23:10:16.071Z,33.87
2018-02-21T23:12:43.571Z,32.17
2018-02-21T23:15:11.080Z,32.63
2018-02-21T23:17:38.614Z,32.77
2018-02-21T23:20:06.332Z,34.70
2018-02-21T23:22:33.842Z,33.53
2018-02-21T23:25:01.334Z,33.23
2018-02-21T23:27:28.843Z,34.00
2018-02-21T23:29:57.111Z,34.27
2018-02-21T23:32:25.382Z,33.63
2018-02-21T23:34:52.986Z,31.67
2018-02-21T23:37:20.460Z,32.93
2018-02-21T23:39:48.171Z,32.63
2018-02-21T23:42:15.647Z,32.37
2018-02-21T23:44:43.930Z,32.77
2018-02-21T23:47:12.190Z,31.53
2018-02-21T23:49:39.698Z,33.80
2018-02-21T23:52:07.199Z,34.60
2018-02-21T23:54:34.694Z,33.00
2018-02-21T23:57:02.971Z,33.63
2018-02-21T23:59:31.252Z,33.60
